Time;durP1;ratioP1;P1;durP2;ratioP2;P2;SDS_P1;SDS_P2;PMS_P1;PMS_P2;Temp;Humidity;BMP_temperature;BMP_pressure;BME280_temperature;BME280_humidity;BME280_pressure;Samples;Min_cycle;Max_cycle;Signal;HPM_P1;HPM_P2
2022/05/14 00:01:17;;;;;;;7.20;4.77;;;25.20;41.50;;;;;;5060955;27;90923;-71
2022/05/14 00:03:47;;;;;;;9.10;4.80;;;25.20;41.60;;;;;;5046413;27;88961;-70
2022/05/14 00:06:17;;;;;;;7.93;4.20;;;25.20;41.60;;;;;;5040487;27;88301;-70
2022/05/14 00:08:45;;;;;;;8.70;3.40;;;25.20;41.70;;;;;;5040877;27;88762;-70
2022/05/14 00:13:58;;;;;;;10.10;4.33;;;25.10;41.70;;;;;;5042730;27;89208;-70
2022/05/14 00:16:27;;;;;;;13.20;4.20;;;25.10;42.50;;;;;;5038505;28;89850;-70
2022/05/14 00:18:56;;;;;;;11.37;5.00;;;25.10;42.00;;;;;;5040647;27;88671;-70
2022/05/14 00:21:24;;;;;;;10.07;3.97;;;25.00;41.90;;;;;;5040401;27;90065;-70
2022/05/14 00:23:52;;;;;;;9.00;3.20;;;25.00;42.00;;;;;;5039016;27;89021;-71
2022/05/14 00:26:21;;;;;;;9.87;3.83;;;25.00;42.10;;;;;;5039434;27;88991;-71
2022/05/14 00:28:49;;;;;;;7.03;2.93;;;25.00;42.80;;;;;;5040258;27;88690;-70
2022/05/14 00:31:17;;;;;;;6.13;3.23;;;25.00;42.20;;;;;;5040667;28;90864;-70
2022/05/14 00:33:46;;;;;;;9.97;2.67;;;25.00;42.30;;;;;;5039615;27;89981;-70
2022/05/14 00:36:15;;;;;;;11.73;3.57;;;25.00;42.30;;;;;;5039112;27;88673;-70
2022/05/14 00:38:43;;;;;;;10.50;3.60;;;24.90;42.30;;;;;;5040478;27;88529;-70
2022/05/14 00:41:11;;;;;;;5.93;2.90;;;24.90;42.40;;;;;;5039626;28;90673;-70
2022/05/14 00:43:48;;;;;;;7.87;2.60;;;25.00;42.50;;;;;;5038214;27;90246;-70
2022/05/14 00:46:18;;;;;;;8.37;2.47;;;24.90;42.50;;;;;;5036208;28;88520;-70
2022/05/14 00:48:46;;;;;;;9.73;2.70;;;24.90;42.60;;;;;;5039966;27;88424;-70
2022/05/14 00:51:17;;;;;;;9.13;3.20;;;24.90;42.60;;;;;;5039384;27;90040;-70
2022/05/14 00:53:46;;;;;;;7.83;3.03;;;24.90;42.70;;;;;;5039458;27;88911;-70
2022/05/14 00:56:16;;;;;;;5.03;2.27;;;24.90;42.70;;;;;;5040888;27;88868;-70
2022/05/14 00:58:47;;;;;;;7.27;2.90;;;24.90;42.80;;;;;;5041433;27;89342;-71
2022/05/14 01:01:15;;;;;;;11.53;2.83;;;24.90;42.80;;;;;;5036570;28;91923;-69
2022/05/14 01:03:43;;;;;;;6.03;2.80;;;24.90;42.90;;;;;;5039119;28;92721;-71
2022/05/14 01:06:13;;;;;;;6.23;2.60;;;24.90;42.90;;;;;;5038328;27;88580;-71
2022/05/14 01:08:42;;;;;;;6.23;2.93;;;24.80;43.00;;;;;;5039178;27;88655;-71
2022/05/14 01:11:10;;;;;;;9.97;3.43;;;24.80;43.10;;;;;;5039209;28;90712;-71
2022/05/14 01:13:39;;;;;;;9.67;3.63;;;24.80;43.10;;;;;;5053719;27;88899;-71
2022/05/14 01:16:07;;;;;;;8.20;2.87;;;24.90;43.20;;;;;;5037906;27;89888;-71
2022/05/14 01:18:37;;;;;;;8.10;3.23;;;24.80;43.10;;;;;;5052815;27;88869;-71
2022/05/14 01:21:06;;;;;;;6.87;3.03;;;24.80;43.20;;;;;;5058426;27;90909;-71
2022/05/14 01:26:27;;;;;;;13.93;3.00;;;24.80;43.10;;;;;;5048158;27;90069;-70
2022/05/14 01:26:28;;;;;;;7.33;2.70;;;24.90;43.30;;;;;;5039857;28;92199;-71
2022/05/14 01:28:56;;;;;;;6.50;2.37;;;24.80;43.20;;;;;;5039945;28;88517;-71
2022/05/14 01:31:24;;;;;;;8.90;3.13;;;24.80;43.30;;;;;;5038787;27;91411;-71
2022/05/14 01:33:53;;;;;;;8.77;3.07;;;24.80;43.30;;;;;;5038772;28;90177;-70
2022/05/14 01:36:21;;;;;;;6.20;2.60;;;24.80;43.30;;;;;;5039497;28;88917;-71
2022/05/14 01:38:49;;;;;;;5.53;2.13;;;24.80;43.30;;;;;;5039969;27;88615;-71
2022/05/14 01:41:17;;;;;;;5.13;2.90;;;24.80;43.30;;;;;;5036662;28;90086;-71
2022/05/14 01:43:47;;;;;;;11.37;3.43;;;24.80;43.40;;;;;;5052440;27;88757;-71
2022/05/14 01:46:18;;;;;;;6.23;2.90;;;24.70;43.30;;;;;;5054048;27;89009;-71
2022/05/14 01:48:46;;;;;;;9.90;2.80;;;24.80;43.30;;;;;;5039279;27;88968;-71
2022/05/14 01:51:14;;;;;;;5.40;2.83;;;24.80;43.40;;;;;;5045267;27;90832;-71
2022/05/14 01:53:42;;;;;;;6.00;2.30;;;24.80;43.40;;;;;;5057711;27;91875;-71
2022/05/14 01:56:11;;;;;;;5.97;2.77;;;24.80;43.40;;;;;;5039431;27;88870;-71
2022/05/14 01:58:39;;;;;;;10.40;2.63;;;24.80;43.40;;;;;;5037243;28;88214;-71
2022/05/14 02:01:10;;;;;;;7.73;2.70;;;24.80;43.40;;;;;;5039745;28;90222;-72
2022/05/14 02:03:38;;;;;;;7.47;2.87;;;24.80;43.50;;;;;;5038777;27;89745;-72
2022/05/14 02:06:07;;;;;;;7.30;2.50;;;24.80;43.50;;;;;;5039061;28;88635;-70
2022/05/14 02:08:35;;;;;;;6.97;2.40;;;24.70;43.50;;;;;;5038903;28;88483;-71
2022/05/14 02:11:03;;;;;;;6.97;2.63;;;24.70;43.50;;;;;;5039111;28;90175;-71
2022/05/14 02:13:31;;;;;;;9.83;3.30;;;24.70;43.60;;;;;;5038936;28;89991;-71
2022/05/14 02:15:59;;;;;;;5.23;2.33;;;24.70;43.60;;;;;;5038844;27;88329;-71
2022/05/14 02:18:29;;;;;;;6.97;2.27;;;24.70;43.60;;;;;;5039250;28;88529;-71
2022/05/14 02:20:57;;;;;;;8.73;2.70;;;24.70;43.60;;;;;;5034158;28;90578;-71
2022/05/14 02:23:25;;;;;;;5.87;2.40;;;24.70;43.60;;;;;;5038859;27;89912;-72
2022/05/14 02:25:54;;;;;;;6.47;2.50;;;24.70;43.60;;;;;;5027156;27;89826;-70
2022/05/14 02:28:22;;;;;;;4.70;2.30;;;24.70;43.60;;;;;;5020412;28;89745;-71
2022/05/14 02:30:50;;;;;;;6.97;2.37;;;24.70;43.70;;;;;;5021036;28;93834;-70
2022/05/14 02:33:18;;;;;;;5.97;2.80;;;24.70;43.70;;;;;;5019447;28;90384;-66
2022/05/14 02:35:47;;;;;;;8.23;4.00;;;24.70;43.70;;;;;;5019250;28;88730;-65
2022/05/14 02:38:16;;;;;;;15.23;4.03;;;24.70;43.70;;;;;;5020174;28;88443;-66
2022/05/14 02:40:44;;;;;;;8.80;3.93;;;24.70;43.70;;;;;;5020093;28;90687;-66
2022/05/14 02:43:12;;;;;;;8.20;3.20;;;24.60;43.70;;;;;;5019619;28;92724;-66
2022/05/14 02:45:41;;;;;;;7.20;3.00;;;24.70;43.70;;;;;;5019202;28;88335;-67
2022/05/14 02:48:10;;;;;;;6.27;3.50;;;24.60;43.70;;;;;;5019132;28;88548;-66
2022/05/14 02:50:38;;;;;;;10.57;3.57;;;24.60;43.70;;;;;;5020528;28;91505;-65
2022/05/14 02:53:07;;;;;;;8.00;3.90;;;24.60;43.70;;;;;;5033708;28;89036;-66
2022/05/14 02:55:35;;;;;;;7.70;3.57;;;24.60;43.70;;;;;;5035679;27;89253;-66
2022/05/14 02:58:03;;;;;;;9.93;2.93;;;24.60;43.70;;;;;;5019607;28;88370;-66
2022/05/14 03:00:31;;;;;;;7.60;3.60;;;24.70;43.80;;;;;;5020289;28;90172;-66
2022/05/14 03:02:59;;;;;;;9.90;3.93;;;24.70;43.80;;;;;;5018535;28;89966;-66
2022/05/14 03:05:28;;;;;;;7.23;4.00;;;24.70;43.70;;;;;;5019138;28;88370;-65
2022/05/14 03:07:56;;;;;;;9.47;4.00;;;24.70;43.70;;;;;;5021496;28;88475;-66
2022/05/14 03:10:26;;;;;;;10.60;4.20;;;24.70;43.80;;;;;;5033956;28;90561;-67
2022/05/14 03:12:54;;;;;;;7.20;2.97;;;24.70;43.80;;;;;;5029694;28;89076;-66
2022/05/14 03:15:22;;;;;;;9.20;2.77;;;24.70;43.80;;;;;;5022119;28;89049;-66
2022/05/14 03:17:50;;;;;;;9.83;3.63;;;24.70;43.80;;;;;;5021996;28;88442;-65
2022/05/14 03:20:18;;;;;;;13.00;3.67;;;24.70;43.80;;;;;;5031482;28;89504;-66
2022/05/14 03:22:46;;;;;;;7.60;2.80;;;24.60;43.80;;;;;;5056278;27;90456;-66
2022/05/14 03:25:14;;;;;;;9.77;3.07;;;24.70;43.90;;;;;;5051906;27;89330;-67
2022/05/14 03:27:44;;;;;;;6.83;2.97;;;24.60;43.90;;;;;;5055305;27;88442;-66
2022/05/14 03:30:13;;;;;;;5.33;2.80;;;24.60;43.90;;;;;;5052366;27;90734;-65
2022/05/14 03:32:41;;;;;;;3.20;1.60;;;24.60;43.90;;;;;;5039370;27;89028;-66
2022/05/14 03:35:09;;;;;;;5.70;2.10;;;24.60;43.90;;;;;;5039699;27;88434;-66
2022/05/14 03:37:38;;;;;;;6.43;2.37;;;24.50;43.90;;;;;;5040471;27;88902;-65
2022/05/14 03:40:09;;;;;;;7.30;2.30;;;24.50;43.90;;;;;;5039322;28;91182;-66
2022/05/14 03:42:37;;;;;;;10.57;5.80;;;24.40;44.00;;;;;;5036781;28;90524;-66
2022/05/14 03:45:08;;;;;;;19.70;10.00;;;24.40;44.00;;;;;;5029852;27;89497;-66
2022/05/14 03:47:37;;;;;;;13.83;7.20;;;24.40;44.10;;;;;;5040231;27;88493;-66
2022/05/14 03:50:06;;;;;;;24.77;11.40;;;24.40;44.10;;;;;;5030496;28;90204;-66
2022/05/14 03:52:34;;;;;;;22.37;12.23;;;24.40;44.10;;;;;;5019982;28;89091;-66
2022/05/14 03:55:02;;;;;;;29.67;14.13;;;24.40;44.20;;;;;;5022876;28;88535;-72
2022/05/14 03:57:30;;;;;;;29.87;15.77;;;24.50;44.30;;;;;;5021365;28;88618;-65
2022/05/14 04:00:01;;;;;;;27.83;15.03;;;24.40;44.20;;;;;;5030020;28;89882;-66
2022/05/14 04:02:31;;;;;;;25.33;14.73;;;24.50;44.40;;;;;;5040442;28;89407;-71
2022/05/14 04:04:59;;;;;;;27.77;15.80;;;24.50;44.40;;;;;;5040182;27;88828;-73
2022/05/14 04:07:27;;;;;;;27.00;15.93;;;24.50;44.40;;;;;;5040877;27;88621;-71
2022/05/14 04:09:55;;;;;;;27.03;14.37;;;24.50;44.40;;;;;;5034114;27;88661;-72
2022/05/14 04:12:35;;;;;;;24.37;12.93;;;24.50;44.40;;;;;;5041699;27;90243;-71
2022/05/14 04:15:04;;;;;;;21.93;12.30;;;24.50;44.40;;;;;;5040691;28;91388;-71
2022/05/14 04:17:33;;;;;;;14.87;8.40;;;24.50;44.40;;;;;;5041319;27;88214;-71
2022/05/14 04:20:01;;;;;;;13.53;8.77;;;24.60;44.40;;;;;;5040661;28;90654;-71
2022/05/14 04:22:30;;;;;;;21.23;11.73;;;24.60;44.40;;;;;;5037749;27;89685;-71
2022/05/14 04:24:58;;;;;;;18.43;11.73;;;24.60;44.40;;;;;;5028344;28;88942;-72
2022/05/14 04:27:26;;;;;;;25.63;12.47;;;24.60;44.40;;;;;;5032264;27;88611;-71
2022/05/14 04:29:54;;;;;;;20.03;9.93;;;24.60;44.40;;;;;;5021434;28;91208;-71
2022/05/14 04:32:22;;;;;;;17.53;11.57;;;24.60;44.50;;;;;;5021141;28;90005;-72
2022/05/14 04:34:51;;;;;;;18.60;11.20;;;24.60;44.40;;;;;;5040399;28;91112;-71
2022/05/14 04:37:19;;;;;;;16.93;9.57;;;24.60;44.40;;;;;;5040659;28;88120;-72
2022/05/14 04:39:49;;;;;;;13.60;6.97;;;24.70;44.40;;;;;;5039782;28;90703;-71
2022/05/14 04:42:17;;;;;;;14.80;8.53;;;24.80;44.30;;;;;;5041017;28;88993;-71
2022/05/14 04:44:45;;;;;;;13.97;7.37;;;24.80;44.30;;;;;;5031233;27;88818;-71
2022/05/14 04:47:14;;;;;;;11.97;6.07;;;24.80;44.30;;;;;;5021398;28;88789;-71
2022/05/14 04:49:43;;;;;;;10.60;5.57;;;24.70;44.30;;;;;;5020933;28;90708;-71
2022/05/14 04:52:13;;;;;;;13.37;6.77;;;24.70;44.40;;;;;;5019756;28;89048;-71
2022/05/14 04:54:41;;;;;;;11.07;6.97;;;24.60;44.30;;;;;;5023736;28;89716;-71
2022/05/14 04:57:09;;;;;;;13.10;5.83;;;24.60;44.40;;;;;;5041615;27;88461;-71
2022/05/14 04:59:37;;;;;;;10.57;5.10;;;24.60;44.40;;;;;;5036749;27;90617;-66
2022/05/14 05:04:51;;;;;;;9.90;6.07;;;24.50;44.40;;;;;;5028794;27;88510;-66
2022/05/14 05:07:20;;;;;;;10.97;5.13;;;24.50;44.40;;;;;;5040786;27;88879;-71
2022/05/14 05:09:48;;;;;;;8.20;4.67;;;24.50;44.40;;;;;;5038616;27;90149;-71
2022/05/14 05:12:16;;;;;;;8.60;4.63;;;24.50;44.40;;;;;;5034690;28;91121;-68
2022/05/14 05:14:44;;;;;;;6.83;4.27;;;24.50;44.40;;;;;;5023462;28;89558;-69
2022/05/14 05:17:12;;;;;;;13.07;4.60;;;24.50;44.40;;;;;;5034131;28;88545;-69
2022/05/14 05:19:41;;;;;;;9.13;3.53;;;24.50;44.50;;;;;;5035516;27;89074;-68
2022/05/14 05:22:09;;;;;;;7.13;3.50;;;24.50;44.50;;;;;;5040206;28;89995;-68
2022/05/14 05:24:39;;;;;;;9.33;3.40;;;24.50;44.60;;;;;;5040078;28;88850;-68
2022/05/14 05:27:07;;;;;;;8.00;2.83;;;24.50;44.70;;;;;;5043456;27;88477;-68
2022/05/14 05:29:35;;;;;;;6.43;3.10;;;24.60;44.80;;;;;;5041452;27;89798;-70
2022/05/14 05:32:04;;;;;;;4.27;1.93;;;24.60;44.70;;;;;;5035686;28;90185;-70
2022/05/14 05:34:32;;;;;;;5.67;2.50;;;24.60;44.70;;;;;;5039362;27;88284;-70
2022/05/14 05:37:00;;;;;;;2.40;1.90;;;24.70;44.70;;;;;;5039744;27;88649;-70
2022/05/14 05:39:28;;;;;;;6.10;1.83;;;24.70;44.60;;;;;;5034329;27;88777;-70
2022/05/14 05:41:58;;;;;;;7.70;1.80;;;24.60;44.60;;;;;;5027844;27;88974;-70
2022/05/14 05:44:26;;;;;;;6.87;1.80;;;24.40;44.60;;;;;;5037947;28;88474;-70
2022/05/14 05:46:54;;;;;;;3.63;2.10;;;24.40;44.70;;;;;;5040207;27;88401;-70
2022/05/14 05:49:22;;;;;;;9.33;1.90;;;24.40;44.80;;;;;;5037825;28;90722;-70
2022/05/14 05:51:50;;;;;;;2.40;1.83;;;24.50;44.80;;;;;;5035834;28;89010;-70
2022/05/14 05:57:06;;;;;;;4.43;2.00;;;24.60;44.90;;;;;;5036315;27;88723;-70
2022/05/14 05:59:34;;;;;;;3.93;1.77;;;24.70;44.80;;;;;;5028773;28;93261;-70
2022/05/14 06:02:02;;;;;;;2.63;1.70;;;24.70;44.70;;;;;;5037775;28;89539;-69
2022/05/14 06:04:30;;;;;;;7.03;2.10;;;24.80;44.80;;;;;;5030295;28;90891;-70
2022/05/14 06:06:58;;;;;;;3.27;1.73;;;24.90;44.70;;;;;;5028861;28;88514;-70
2022/05/14 06:09:29;;;;;;;2.93;2.00;;;24.90;44.70;;;;;;5040029;28;89396;-70
2022/05/14 06:11:58;;;;;;;4.33;1.53;;;24.90;44.70;;;;;;5023640;28;89495;-69
2022/05/14 06:14:27;;;;;;;4.77;2.40;;;24.90;44.60;;;;;;5028258;28;88410;-69
2022/05/14 06:16:55;;;;;;;7.07;2.43;;;25.00;44.70;;;;;;5033328;28;90087;-70
2022/05/14 06:19:23;;;;;;;4.23;1.80;;;25.00;44.70;;;;;;5039372;27;90520;-70
2022/05/14 06:21:51;;;;;;;6.33;1.90;;;25.00;44.60;;;;;;5039106;28;90045;-70
2022/05/14 06:24:19;;;;;;;4.53;1.63;;;25.10;44.70;;;;;;5035192;28;88479;-70
2022/05/14 06:26:47;;;;;;;5.33;1.70;;;25.10;44.60;;;;;;5019935;28;88478;-70
2022/05/14 06:29:15;;;;;;;2.57;1.67;;;25.10;44.50;;;;;;5028266;28;90608;-69
2022/05/14 06:31:45;;;;;;;4.27;1.67;;;25.20;44.60;;;;;;5038633;28;90434;-70
2022/05/14 06:34:13;;;;;;;6.70;1.60;;;25.20;44.50;;;;;;5038609;27;88790;-70
2022/05/14 06:36:41;;;;;;;4.30;1.90;;;25.20;44.40;;;;;;5037307;27;88755;-69
2022/05/14 06:39:09;;;;;;;4.73;1.53;;;25.20;45.00;;;;;;5027695;28;89491;-69
2022/05/14 06:41:38;;;;;;;4.37;1.70;;;25.20;44.30;;;;;;5039228;27;89265;-69
2022/05/14 06:44:07;;;;;;;5.90;2.07;;;25.30;44.30;;;;;;5043032;28;88771;-69
2022/05/14 06:46:35;;;;;;;7.90;1.97;;;25.30;44.30;;;;;;5034795;28;89485;-69
2022/05/14 06:49:05;;;;;;;2.70;1.57;;;25.30;44.20;;;;;;5031303;28;92284;-69
2022/05/14 06:51:33;;;;;;;4.57;1.50;;;25.30;44.20;;;;;;5038201;28;88528;-68
2022/05/14 06:54:05;;;;;;;5.23;1.73;;;25.30;44.20;;;;;;5035898;27;89589;-70
2022/05/14 06:56:33;;;;;;;2.97;1.63;;;25.30;44.90;;;;;;5031100;28;88778;-69
2022/05/14 06:59:02;;;;;;;6.07;1.53;;;25.30;44.80;;;;;;5023120;28;89210;-70
2022/05/14 07:01:30;;;;;;;2.30;1.60;;;25.30;44.10;;;;;;5034119;27;93133;-70
2022/05/14 07:06:48;;;;;;;7.40;1.63;;;25.30;44.10;;;;;;5042856;28;88581;-70
2022/05/14 07:09:20;;;;;;;3.57;1.47;;;25.30;44.00;;;;;;5042489;28;90737;-70
2022/05/14 07:11:49;;;;;;;3.23;1.60;;;25.30;44.00;;;;;;5042416;27;90022;-70
2022/05/14 07:14:18;;;;;;;2.60;1.50;;;25.30;44.00;;;;;;5041683;27;88338;-71
2022/05/14 07:16:46;;;;;;;6.80;1.73;;;25.30;43.90;;;;;;5041325;28;89972;-70
2022/05/14 07:19:14;;;;;;;3.80;1.17;;;25.30;43.90;;;;;;5040806;27;93726;-70
2022/05/14 07:21:43;;;;;;;2.70;1.40;;;25.30;43.90;;;;;;5045132;27;88765;-70
2022/05/14 07:24:15;;;;;;;4.77;2.00;;;25.30;43.90;;;;;;5050263;27;92333;-70
2022/05/14 07:26:43;;;;;;;7.07;1.67;;;25.30;44.40;;;;;;5061850;27;88667;-70
2022/05/14 07:29:13;;;;;;;4.80;1.70;;;25.20;43.80;;;;;;5053347;27;90538;-70
2022/05/14 07:31:41;;;;;;;2.63;1.57;;;25.20;43.80;;;;;;5045784;27;90119;-70
2022/05/14 07:34:09;;;;;;;6.13;1.80;;;25.20;43.80;;;;;;5041807;27;88801;-70
2022/05/14 07:36:39;;;;;;;4.57;1.73;;;25.20;43.80;;;;;;5041002;27;89411;-67
2022/05/14 07:39:07;;;;;;;1.87;1.23;;;25.20;43.80;;;;;;5039942;27;90090;-68
2022/05/14 07:41:37;;;;;;;3.93;1.73;;;25.10;43.70;;;;;;5040893;27;88986;-68
2022/05/14 07:44:06;;;;;;;5.43;1.83;;;25.10;43.70;;;;;;5040823;28;88844;-67
2022/05/14 07:46:35;;;;;;;4.47;1.70;;;25.10;43.60;;;;;;5041295;27;88534;-67
2022/05/14 07:49:05;;;;;;;3.90;1.30;;;25.10;43.70;;;;;;5040932;27;90940;-67
2022/05/14 07:51:33;;;;;;;4.37;1.80;;;25.10;43.60;;;;;;5040603;27;90302;-67
2022/05/14 07:54:01;;;;;;;3.43;1.33;;;25.10;43.60;;;;;;5040290;27;88874;-67
2022/05/14 07:56:29;;;;;;;3.30;2.13;;;25.10;43.60;;;;;;5040584;28;88883;-67
2022/05/14 07:58:59;;;;;;;5.30;1.40;;;25.10;43.60;;;;;;5041232;27;93782;-67
2022/05/14 08:01:27;;;;;;;6.23;2.63;;;25.10;43.50;;;;;;5040577;28;89487;-68
2022/05/14 08:03:55;;;;;;;7.70;2.00;;;25.10;43.50;;;;;;5041135;27;92005;-68
2022/05/14 08:06:23;;;;;;;10.37;2.07;;;25.00;43.50;;;;;;5041410;27;88461;-68
2022/05/14 08:08:53;;;;;;;8.80;2.20;;;25.00;43.50;;;;;;5041587;28;90679;-67
2022/05/14 08:11:22;;;;;;;8.13;2.73;;;25.00;43.50;;;;;;5046773;27;90082;-67
2022/05/14 08:13:54;;;;;;;11.93;2.43;;;25.00;43.50;;;;;;5048926;27;90289;-67
2022/05/14 08:16:23;;;;;;;7.37;2.47;;;25.00;43.40;;;;;;5060932;27;89308;-64
2022/05/14 08:18:52;;;;;;;6.43;3.17;;;25.00;43.40;;;;;;5060344;27;90820;-64
2022/05/14 08:26:53;;;;;;;5.37;2.83;;;25.10;43.40;;;;;;5054518;27;88550;-67
2022/05/14 08:29:21;;;;;;;7.13;1.90;;;25.10;43.30;;;;;;5037091;27;91058;-68
2022/05/14 08:31:50;;;;;;;4.07;2.37;;;25.00;43.30;;;;;;5039696;27;90662;-68
2022/05/14 08:34:19;;;;;;;8.07;2.97;;;25.00;43.30;;;;;;5042105;27;88807;-67
2022/05/14 08:36:47;;;;;;;6.30;2.93;;;25.00;43.30;;;;;;5060485;27;88482;-67
2022/05/14 08:39:16;;;;;;;7.47;3.80;;;25.10;43.30;;;;;;5037673;28;90619;-67
2022/05/14 08:41:47;;;;;;;6.93;2.83;;;25.10;43.40;;;;;;5041487;27;89602;-67
2022/05/14 08:44:17;;;;;;;7.90;3.40;;;25.10;43.40;;;;;;5040164;27;89263;-67
2022/05/14 08:46:45;;;;;;;8.07;2.97;;;25.10;43.40;;;;;;5038165;27;88732;-67
2022/05/14 08:49:17;;;;;;;8.77;3.00;;;25.00;43.30;;;;;;5041390;27;90691;-67
2022/05/14 08:51:47;;;;;;;7.07;3.17;;;25.00;43.40;;;;;;5037874;27;90819;-67
2022/05/14 08:54:15;;;;;;;9.17;3.27;;;25.00;43.40;;;;;;5042816;27;91053;-67
2022/05/14 08:56:45;;;;;;;8.33;3.17;;;24.90;43.40;;;;;;5047740;27;89787;-67
2022/05/14 08:59:33;;;;;;;6.40;2.87;;;24.90;43.40;;;;;;5039532;27;89606;-67
2022/05/14 09:02:03;;;;;;;11.23;3.67;;;24.90;43.50;;;;;;5047175;27;91369;-68
2022/05/14 09:04:33;;;;;;;11.23;5.10;;;24.90;43.40;;;;;;5050986;27;89497;-68
2022/05/14 09:07:01;;;;;;;6.73;4.10;;;25.00;43.50;;;;;;5036976;27;88924;-70
2022/05/14 09:09:29;;;;;;;8.53;4.30;;;25.00;43.40;;;;;;5042088;27;90162;-69
2022/05/14 09:11:59;;;;;;;13.37;5.10;;;25.00;43.30;;;;;;5058320;27;90117;-69
2022/05/14 09:14:28;;;;;;;7.53;3.43;;;25.00;43.30;;;;;;5053310;27;88546;-69
2022/05/14 09:17:01;;;;;;;7.57;3.67;;;25.00;43.30;;;;;;5039184;28;88627;-69
2022/05/14 09:19:36;;;;;;;11.57;4.40;;;25.00;43.20;;;;;;5049935;27;90057;-69
2022/05/14 09:22:11;;;;;;;13.07;4.50;;;25.10;43.20;;;;;;5059463;27;88861;-70
2022/05/14 09:24:43;;;;;;;13.30;4.50;;;25.00;43.10;;;;;;5058680;27;88882;-69
2022/05/14 09:27:12;;;;;;;6.93;3.83;;;25.10;43.10;;;;;;5037846;27;88658;-69
2022/05/14 09:29:42;;;;;;;10.87;6.20;;;25.20;43.10;;;;;;5059837;27;90822;-67
2022/05/14 09:32:25;;;;;;;7.67;3.93;;;25.20;43.10;;;;;;5052874;27;89484;-68
2022/05/14 09:35:10;;;;;;;13.67;3.50;;;25.20;43.10;;;;;;5037046;28;89016;-67
2022/05/14 09:37:50;;;;;;;6.37;3.17;;;25.20;42.90;;;;;;5040952;28;88374;-67
2022/05/14 09:40:23;;;;;;;8.67;3.77;;;25.20;42.80;;;;;;5038169;28;90411;-67
2022/05/14 09:42:52;;;;;;;7.03;3.43;;;25.20;42.80;;;;;;5038989;27;89693;-67
2022/05/14 09:45:23;;;;;;;7.93;3.57;;;25.20;42.80;;;;;;5039447;27;91421;-68
2022/05/14 09:47:51;;;;;;;7.97;3.70;;;25.20;42.70;;;;;;5040197;27;88552;-67
2022/05/14 09:50:23;;;;;;;9.53;3.90;;;25.30;42.70;;;;;;5055206;27;93997;-67
2022/05/14 09:52:59;;;;;;;8.73;4.03;;;25.20;42.60;;;;;;5059329;27;89614;-67
2022/05/14 09:55:37;;;;;;;11.80;4.13;;;25.30;42.70;;;;;;5046687;27;89804;-67
2022/05/14 09:58:11;;;;;;;7.70;3.57;;;25.20;42.60;;;;;;5039354;27;88413;-67
2022/05/14 10:00:42;;;;;;;9.53;3.90;;;25.30;42.60;;;;;;5039146;28;93480;-70
2022/05/14 10:03:20;;;;;;;8.83;3.57;;;25.30;42.60;;;;;;5038730;27;90099;-69
2022/05/14 10:05:53;;;;;;;9.10;3.27;;;25.20;42.70;;;;;;5038584;28;88894;-70
2022/05/14 10:08:41;;;;;;;8.80;3.73;;;25.30;42.80;;;;;;5039429;28;88587;-69
2022/05/14 10:11:11;;;;;;;6.40;2.80;;;25.30;42.80;;;;;;5047706;27;90746;-69
2022/05/14 10:13:42;;;;;;;4.60;2.63;;;25.40;42.80;;;;;;5038795;28;90423;-69
2022/05/14 10:16:12;;;;;;;4.97;3.07;;;25.40;42.70;;;;;;5055221;27;89481;-69
2022/05/14 10:18:55;;;;;;;8.80;3.13;;;25.40;42.70;;;;;;5064590;27;88492;-69
2022/05/14 10:21:30;;;;;;;6.33;2.90;;;25.40;42.60;;;;;;5045314;27;89477;-69
2022/05/14 10:27:22;;;;;;;7.23;2.70;;;25.40;42.60;;;;;;5066057;27;88487;-69
2022/05/14 10:30:02;;;;;;;6.43;2.40;;;25.50;42.60;;;;;;5061182;27;88666;-69
2022/05/14 10:32:31;;;;;;;6.40;3.00;;;25.50;42.60;;;;;;5046163;27;90208;-70
2022/05/14 10:35:01;;;;;;;7.83;2.53;;;25.50;42.60;;;;;;5046269;27;90232;-69
2022/05/14 10:37:36;;;;;;;6.17;2.50;;;25.50;42.60;;;;;;5048391;27;88769;-70
2022/05/14 10:40:08;;;;;;;5.83;2.97;;;25.50;42.60;;;;;;5045463;27;89264;-69
2022/05/14 10:42:41;;;;;;;5.07;2.57;;;25.50;42.50;;;;;;5045737;28;89020;-70
2022/05/14 10:45:11;;;;;;;4.93;2.37;;;25.50;42.50;;;;;;5044929;28;90045;-69
2022/05/14 10:47:44;;;;;;;6.40;2.90;;;25.50;42.50;;;;;;5044379;27;88557;-70
2022/05/14 10:50:15;;;;;;;4.27;2.27;;;25.60;42.50;;;;;;5045265;27;88540;-70
2022/05/14 10:52:48;;;;;;;4.97;2.57;;;25.60;42.40;;;;;;5045218;27;90592;-70
2022/05/14 10:55:18;;;;;;;8.27;3.57;;;25.60;42.50;;;;;;5056083;27;89610;-69
2022/05/14 10:57:48;;;;;;;4.83;1.97;;;25.60;42.50;;;;;;5064894;27;88545;-69
2022/05/14 11:00:23;;;;;;;7.13;2.83;;;25.60;42.50;;;;;;5064848;27;88434;-69
2022/05/14 11:02:57;;;;;;;5.97;3.00;;;25.60;42.50;;;;;;5063536;27;93908;-69
2022/05/14 11:05:33;;;;;;;7.53;2.67;;;25.60;42.40;;;;;;5045282;28;89722;-70
2022/05/14 11:08:11;;;;;;;6.30;2.37;;;25.60;42.40;;;;;;5045135;27;90694;-69
2022/05/14 11:10:39;;;;;;;4.60;2.17;;;25.70;42.50;;;;;;5044882;27;88622;-70
2022/05/14 11:13:16;;;;;;;4.90;2.30;;;25.70;42.40;;;;;;5044639;27;90603;-69
2022/05/14 11:15:44;;;;;;;6.53;2.27;;;25.60;42.40;;;;;;5043349;28;90082;-69
2022/05/14 11:18:13;;;;;;;6.00;2.67;;;25.70;42.40;;;;;;5044088;27;88377;-70
2022/05/14 11:20:53;;;;;;;6.10;2.30;;;25.70;42.40;;;;;;5050353;27;88523;-70
2022/05/14 11:23:23;;;;;;;8.27;2.90;;;25.70;42.40;;;;;;5064983;27;90839;-69
2022/05/14 11:26:04;;;;;;;5.60;2.40;;;25.70;42.40;;;;;;5052402;27;88996;-70
2022/05/14 11:28:32;;;;;;;10.93;3.30;;;25.70;42.40;;;;;;5044637;27;90525;-70
2022/05/14 11:31:14;;;;;;;7.23;3.33;;;25.70;42.40;;;;;;5042402;27;88562;-70
2022/05/14 11:33:42;;;;;;;8.33;2.80;;;25.60;42.30;;;;;;5045747;27;89520;-69
2022/05/14 11:36:22;;;;;;;7.87;2.67;;;25.60;42.30;;;;;;5061455;27;90183;-69
2022/05/14 11:39:07;;;;;;;6.70;2.50;;;25.60;42.40;;;;;;5059350;27;88518;-69
2022/05/14 11:41:36;;;;;;;4.80;2.23;;;25.50;42.30;;;;;;5056704;27;88539;-69
2022/05/14 11:44:06;;;;;;;2.93;2.13;;;25.50;42.30;;;;;;5052391;27;90583;-69
2022/05/14 11:46:40;;;;;;;10.43;3.47;;;25.50;42.30;;;;;;5056229;27;88946;-69
2022/05/14 11:49:11;;;;;;;8.13;3.60;;;25.50;42.30;;;;;;5056861;27;91402;-69
2022/05/14 11:51:43;;;;;;;6.73;2.90;;;25.50;42.30;;;;;;5052740;27;88626;-69
2022/05/14 11:54:17;;;;;;;7.93;3.13;;;25.50;42.30;;;;;;5053595;27;90731;-69
2022/05/14 11:56:49;;;;;;;10.70;3.37;;;25.50;42.30;;;;;;5057194;27;88918;-70
2022/05/14 11:59:19;;;;;;;7.00;3.60;;;25.50;42.30;;;;;;5056414;27;89439;-69
2022/05/14 12:01:47;;;;;;;11.63;4.07;;;25.50;42.30;;;;;;5052218;27;89157;-69
2022/05/14 12:04:18;;;;;;;10.83;4.33;;;25.50;42.30;;;;;;5058970;27;89563;-69
2022/05/14 12:06:55;;;;;;;6.87;3.37;;;25.50;42.20;;;;;;5057480;27;90900;-69
2022/05/14 12:09:33;;;;;;;8.57;3.40;;;25.50;42.20;;;;;;5039712;27;88717;-69
2022/05/14 12:12:04;;;;;;;8.53;3.50;;;25.50;42.20;;;;;;5039483;28;88690;-69
2022/05/14 12:14:37;;;;;;;7.40;3.60;;;25.50;42.10;;;;;;5038076;27;90023;-69
2022/05/14 12:17:06;;;;;;;6.00;2.73;;;25.50;42.10;;;;;;5055095;27;89192;-69
2022/05/14 12:19:36;;;;;;;9.97;3.50;;;25.50;42.00;;;;;;5055491;27;88769;-69
2022/05/14 12:22:05;;;;;;;7.23;3.43;;;25.50;42.00;;;;;;5055248;27;88521;-70
2022/05/14 12:24:36;;;;;;;7.43;3.40;;;25.50;42.00;;;;;;5053702;27;92017;-69
2022/05/14 12:27:07;;;;;;;11.43;3.47;;;25.50;41.90;;;;;;5053108;27;89998;-69
2022/05/14 12:29:36;;;;;;;10.03;3.73;;;25.60;42.00;;;;;;5051522;27;88904;-69
2022/05/14 12:34:53;;;;;;;6.40;3.13;;;25.60;41.80;;;;;;5052231;27;90975;-69
2022/05/14 12:37:24;;;;;;;9.67;3.17;;;25.70;41.90;;;;;;5051964;27;90424;-70
2022/05/14 12:39:54;;;;;;;8.20;3.23;;;25.70;41.90;;;;;;5054957;27;88533;-69
2022/05/14 12:42:30;;;;;;;6.57;3.63;;;25.70;41.90;;;;;;5055238;27;88567;-69
2022/05/14 12:44:59;;;;;;;9.83;3.50;;;25.70;41.70;;;;;;5058059;27;89681;-69
2022/05/14 12:47:29;;;;;;;8.47;3.63;;;25.70;41.70;;;;;;5055042;27;88827;-69
2022/05/14 12:49:57;;;;;;;8.60;4.63;;;25.80;41.70;;;;;;5049084;27;88971;-69
2022/05/14 12:52:28;;;;;;;8.07;4.07;;;25.80;41.60;;;;;;5054378;27;90126;-70
2022/05/14 12:54:59;;;;;;;6.33;3.67;;;25.80;41.60;;;;;;5055477;27;91148;-70
2022/05/14 12:57:27;;;;;;;10.17;3.87;;;25.80;41.60;;;;;;5057491;27;89464;-69
2022/05/14 12:59:55;;;;;;;11.00;4.73;;;25.80;41.50;;;;;;5057744;27;91499;-69
2022/05/14 13:02:24;;;;;;;13.47;5.13;;;25.90;41.50;;;;;;5048918;27;89398;-69
2022/05/14 13:04:55;;;;;;;10.13;4.03;;;25.90;41.50;;;;;;5053845;27;90549;-69
2022/05/14 13:07:24;;;;;;;8.77;3.57;;;25.80;41.40;;;;;;5055796;27;92935;-69
2022/05/14 13:09:52;;;;;;;7.90;3.43;;;25.80;41.50;;;;;;5054699;27;88525;-69
2022/05/14 13:12:22;;;;;;;6.43;3.83;;;25.80;41.40;;;;;;5047121;27;88517;-69
2022/05/14 13:14:52;;;;;;;11.50;5.27;;;25.80;41.40;;;;;;5051626;27;88435;-69
2022/05/14 13:17:21;;;;;;;6.77;3.83;;;25.80;41.40;;;;;;5051253;27;90084;-69
2022/05/14 13:19:50;;;;;;;10.57;3.60;;;25.90;41.40;;;;;;5057844;27;88545;-69